createdAt,value
2023-11-21T00:00:13.109Z,6.06
2023-11-21T00:03:01.807Z,6.10
2023-11-21T00:05:30.225Z,6.10
2023-11-21T00:07:58.306Z,6.10
2023-11-21T00:10:26.417Z,6.10
2023-11-21T00:12:56.322Z,6.10
2023-11-21T00:15:24.856Z,6.10
2023-11-21T00:17:53.109Z,6.10
2023-11-21T00:20:21.925Z,6.10
2023-11-21T00:22:49.905Z,6.10
2023-11-21T00:25:18.923Z,6.02
2023-11-21T00:27:47.262Z,6.00
2023-11-21T00:30:16.194Z,6.10
2023-11-21T00:32:44.696Z,6.00
2023-11-21T00:35:13.109Z,5.92
2023-11-21T00:37:41.607Z,5.90
2023-11-21T00:40:11.251Z,5.90
2023-11-21T00:42:39.466Z,5.90
2023-11-21T00:45:08.613Z,5.90
2023-11-21T00:47:36.658Z,5.90
2023-11-21T00:50:07.366Z,6.00
2023-11-21T00:52:35.793Z,5.90
2023-11-21T00:55:05.150Z,5.98
2023-11-21T00:57:33.222Z,5.98
2023-11-21T01:00:01.472Z,6.00
2023-11-21T01:02:30.636Z,6.00
2023-11-21T01:04:58.878Z,6.00
2023-11-21T01:07:28.418Z,6.00
2023-11-21T01:09:57.782Z,6.00
2023-11-21T01:12:26.435Z,6.00
2023-11-21T01:14:55.264Z,6.00
2023-11-21T01:17:24.178Z,6.00
2023-11-21T01:19:53.669Z,6.00
2023-11-21T01:22:27.332Z,6.00
2023-11-21T01:24:57.383Z,6.06
2023-11-21T01:27:25.454Z,6.00
2023-11-21T01:29:55.105Z,5.90
2023-11-21T01:32:24.390Z,5.90
2023-11-21T01:34:52.634Z,5.92
2023-11-21T01:37:23.090Z,5.90
2023-11-21T01:39:51.351Z,5.90
2023-11-21T01:42:19.831Z,5.90
2023-11-21T01:44:48.097Z,5.90
2023-11-21T01:47:16.785Z,5.90
2023-11-21T01:49:45.887Z,5.90
2023-11-21T01:52:14.986Z,5.80
2023-11-21T01:54:43.856Z,5.72
2023-11-21T01:57:11.930Z,5.70
2023-11-21T01:59:40.174Z,5.70
2023-11-21T02:02:08.539Z,5.72
2023-11-21T02:04:38.006Z,5.80
2023-11-21T02:07:09.270Z,5.80
2023-11-21T02:09:39.659Z,5.80
2023-11-21T02:12:09.978Z,5.80
2023-11-21T02:14:38.074Z,5.72
2023-11-21T02:17:06.244Z,5.60
2023-11-21T02:19:35.722Z,5.56
2023-11-21T02:22:07.567Z,5.50
2023-11-21T02:24:35.824Z,5.50
2023-11-21T02:27:05.793Z,5.50
2023-11-21T02:29:34.695Z,5.52
2023-11-21T02:32:02.892Z,5.50
2023-11-21T02:34:31.137Z,5.60
2023-11-21T02:36:59.207Z,5.60
2023-11-21T02:39:27.773Z,5.60
2023-11-21T02:41:55.820Z,5.50
2023-11-21T02:44:23.953Z,5.50
2023-11-21T02:46:52.108Z,5.36
2023-11-21T02:49:21.014Z,5.28
2023-11-21T02:51:49.898Z,5.30
2023-11-21T02:54:20.365Z,5.30
2023-11-21T02:56:49.310Z,5.30
2023-11-21T02:59:17.485Z,5.34
2023-11-21T03:01:45.652Z,5.40
2023-11-21T03:04:19.352Z,5.38
2023-11-21T03:06:47.658Z,5.38
2023-11-21T03:09:17.757Z,5.30
2023-11-21T03:11:46.267Z,5.40
2023-11-21T03:14:14.413Z,5.40
2023-11-21T03:16:42.612Z,5.40
2023-11-21T03:19:11.188Z,5.40
2023-11-21T03:21:39.569Z,5.40
2023-11-21T03:24:09.053Z,5.40
2023-11-21T03:26:38.865Z,5.40
2023-11-21T03:29:07.032Z,5.40
2023-11-21T03:31:35.194Z,5.30
2023-11-21T03:34:03.394Z,5.30
2023-11-21T03:36:31.882Z,5.40
2023-11-21T03:38:59.918Z,5.40
2023-11-21T03:41:28.141Z,5.40
2023-11-21T03:43:56.608Z,5.40
2023-11-21T03:46:24.892Z,5.40
2023-11-21T03:48:53.012Z,5.50
2023-11-21T03:51:21.155Z,5.50
2023-11-21T03:53:49.103Z,5.48
2023-11-21T03:56:17.097Z,5.50
2023-11-21T03:58:45.091Z,5.50
2023-11-21T04:01:13.306Z,5.50
2023-11-21T04:03:41.740Z,5.60
2023-11-21T04:06:09.986Z,5.50
2023-11-21T04:08:38.278Z,5.60
2023-11-21T04:11:06.507Z,5.56
2023-11-21T04:13:34.463Z,5.56
2023-11-21T04:16:04.566Z,5.60
2023-11-21T04:18:32.547Z,5.50
2023-11-21T04:21:00.790Z,5.40
2023-11-21T04:23:30.105Z,5.40
2023-11-21T04:25:59.078Z,5.50
2023-11-21T04:28:27.136Z,5.58
2023-11-21T04:30:55.226Z,5.60
2023-11-21T04:33:23.712Z,5.60
2023-11-21T04:35:51.712Z,5.50
2023-11-21T04:38:20.348Z,5.50
2023-11-21T04:40:48.361Z,5.50
2023-11-21T04:43:16.786Z,5.48
2023-11-21T04:45:44.729Z,5.48
2023-11-21T04:48:12.767Z,5.42
2023-11-21T04:50:40.921Z,5.40
2023-11-21T04:53:08.839Z,5.38
2023-11-21T04:55:37.010Z,5.30
2023-11-21T04:58:05.640Z,5.20
2023-11-21T05:00:33.820Z,5.20
2023-11-21T05:03:05.310Z,5.20
2023-11-21T05:05:35.212Z,5.20
2023-11-21T05:08:03.782Z,5.10
2023-11-21T05:10:31.935Z,4.90
2023-11-21T05:12:59.906Z,4.80
2023-11-21T05:15:28.814Z,4.70
2023-11-21T05:18:01.268Z,4.60
2023-11-21T05:20:29.361Z,4.50
2023-11-21T05:22:57.388Z,4.30
2023-11-21T05:25:25.958Z,4.28
2023-11-21T05:27:55.623Z,4.30
2023-11-21T05:30:23.577Z,4.20
2023-11-21T05:32:51.604Z,4.10
2023-11-21T05:35:19.632Z,4.00
2023-11-21T05:37:48.093Z,4.10
2023-11-21T05:40:17.099Z,4.12
2023-11-21T05:42:45.088Z,4.20
2023-11-21T05:45:13.856Z,4.26
2023-11-21T05:47:43.891Z,4.30
2023-11-21T05:50:15.776Z,4.30
2023-11-21T05:52:45.830Z,4.40
2023-11-21T05:55:14.661Z,4.50
2023-11-21T05:57:43.603Z,4.50
2023-11-21T06:00:26.985Z,4.50
2023-11-21T06:02:56.153Z,4.50
2023-11-21T06:05:26.260Z,4.52
2023-11-21T06:07:55.858Z,4.50
2023-11-21T06:10:25.742Z,4.50
2023-11-21T06:12:54.817Z,4.60
2023-11-21T06:15:24.365Z,4.70
2023-11-21T06:17:55.667Z,4.60
2023-11-21T06:20:24.188Z,4.60
2023-11-21T06:22:52.827Z,4.48
2023-11-21T06:25:21.085Z,4.32
2023-11-21T06:27:49.334Z,4.20
2023-11-21T06:30:17.724Z,4.10
2023-11-21T06:32:47.850Z,4.00
2023-11-21T06:35:17.809Z,4.00
2023-11-21T06:37:50.240Z,4.00
2023-11-21T06:40:20.051Z,4.10
2023-11-21T06:42:48.626Z,4.20
2023-11-21T06:45:17.667Z,4.28
2023-11-21T06:47:46.170Z,4.40
2023-11-21T06:50:15.189Z,4.52
2023-11-21T06:52:44.362Z,4.60
2023-11-21T06:55:12.555Z,4.70
2023-11-21T06:57:40.547Z,4.62
2023-11-21T07:00:12.634Z,4.60
2023-11-21T07:02:41.134Z,4.52
2023-11-21T07:05:09.383Z,4.58
2023-11-21T07:07:38.824Z,4.50
2023-11-21T07:10:09.556Z,4.64
2023-11-21T07:12:37.604Z,4.60
2023-11-21T07:15:10.276Z,4.60
2023-11-21T07:17:41.170Z,4.70
2023-11-21T07:20:12.633Z,4.70
2023-11-21T07:22:41.669Z,4.80
2023-11-21T07:25:10.965Z,4.80
2023-11-21T07:27:39.208Z,4.70
2023-11-21T07:30:09.288Z,4.80
2023-11-21T07:32:41.691Z,4.80
2023-11-21T07:35:10.436Z,4.90
2023-11-21T07:37:39.054Z,5.00
2023-11-21T07:40:10.144Z,5.00
2023-11-21T07:42:38.936Z,4.90
2023-11-21T07:45:08.414Z,4.94
2023-11-21T07:47:36.722Z,5.10
2023-11-21T07:50:05.654Z,5.10
2023-11-21T07:52:33.690Z,5.18
2023-11-21T07:55:02.786Z,5.30
2023-11-21T07:57:31.117Z,5.40
2023-11-21T07:59:59.288Z,5.40
2023-11-21T08:02:28.827Z,5.44
2023-11-21T08:04:58.323Z,5.60
2023-11-21T08:07:27.213Z,5.50
2023-11-21T08:09:55.276Z,5.70
2023-11-21T08:12:23.321Z,5.86
2023-11-21T08:14:51.495Z,5.92
2023-11-21T08:17:21.634Z,6.00
2023-11-21T08:19:51.024Z,6.00
2023-11-21T08:22:19.302Z,6.00
2023-11-21T08:24:48.091Z,6.10
2023-11-21T08:27:17.498Z,6.10
2023-11-21T08:29:45.507Z,6.16
2023-11-21T08:32:13.596Z,6.30
2023-11-21T08:34:44.282Z,6.40
2023-11-21T08:37:13.485Z,6.58
2023-11-21T08:39:43.322Z,6.60
2023-11-21T08:42:11.365Z,6.42
2023-11-21T08:44:40.042Z,6.40
2023-11-21T08:47:09.347Z,6.40
2023-11-21T08:49:37.684Z,6.50
2023-11-21T08:52:06.403Z,6.60
2023-11-21T08:54:35.496Z,6.40
2023-11-21T08:57:04.005Z,6.58
2023-11-21T08:59:32.095Z,6.70
2023-11-21T09:02:00.092Z,6.78
2023-11-21T09:04:28.406Z,6.74
2023-11-21T09:06:56.493Z,6.80
2023-11-21T09:09:26.010Z,6.80
2023-11-21T09:11:54.501Z,6.82
2023-11-21T09:14:22.387Z,6.90
2023-11-21T09:16:51.927Z,6.90
2023-11-21T09:19:20.673Z,6.80
2023-11-21T09:21:48.747Z,6.80
2023-11-21T09:24:16.732Z,6.90
2023-11-21T09:26:44.655Z,7.00
2023-11-21T09:29:12.763Z,7.10
2023-11-21T09:31:40.869Z,7.20
2023-11-21T09:34:08.879Z,7.26
2023-11-21T09:36:36.927Z,7.50
2023-11-21T09:39:06.994Z,7.52
2023-11-21T09:41:56.508Z,7.52
2023-11-21T09:44:41.280Z,7.40
2023-11-21T09:47:11.961Z,7.28
2023-11-21T09:49:40.076Z,7.34
2023-11-21T09:52:08.022Z,7.44
2023-11-21T09:54:36.555Z,7.50
2023-11-21T09:57:04.753Z,7.48
2023-11-21T09:59:36.941Z,7.30
2023-11-21T10:02:05.120Z,7.30
2023-11-21T10:04:33.599Z,7.30
2023-11-21T10:07:02.158Z,7.30
2023-11-21T10:09:30.175Z,7.30
2023-11-21T10:11:58.153Z,7.40
2023-11-21T10:14:26.258Z,7.40
2023-11-21T10:16:54.678Z,7.40
2023-11-21T10:19:23.745Z,7.30
2023-11-21T10:21:52.676Z,7.30
2023-11-21T10:24:20.909Z,7.40
2023-11-21T10:26:53.645Z,7.40
2023-11-21T10:29:23.167Z,7.30
2023-11-21T10:31:52.992Z,7.20
2023-11-21T10:34:21.833Z,7.10
2023-11-21T10:36:50.125Z,7.10
2023-11-21T10:39:20.035Z,7.10
2023-11-21T10:41:48.343Z,7.20
2023-11-21T10:44:24.042Z,7.20
2023-11-21T10:46:53.606Z,7.20
2023-11-21T10:49:21.801Z,7.30
2023-11-21T10:51:50.263Z,7.40
2023-11-21T10:54:24.697Z,7.48
2023-11-21T10:57:00.518Z,7.60
2023-11-21T10:59:33.144Z,7.66
2023-11-21T11:02:05.311Z,7.72
2023-11-21T11:04:33.829Z,7.80
2023-11-21T11:07:06.206Z,7.80
2023-11-21T11:09:37.621Z,7.64
2023-11-21T11:12:07.219Z,7.62
2023-11-21T11:14:35.289Z,7.60
2023-11-21T11:17:05.247Z,7.70
2023-11-21T11:19:33.829Z,7.70
2023-11-21T11:22:47.386Z,7.70
2023-11-21T11:25:20.429Z,7.70
2023-11-21T11:27:59.577Z,7.76
2023-11-21T11:30:47.369Z,7.80
2023-11-21T11:33:40.418Z,7.72
2023-11-21T11:36:47.933Z,7.80
2023-11-21T11:39:45.023Z,7.80
2023-11-21T11:42:21.153Z,7.80
2023-11-21T11:44:53.302Z,7.82
2023-11-21T11:47:41.627Z,7.72
2023-11-21T11:50:23.080Z,7.70
2023-11-21T11:52:53.320Z,7.60
2023-11-21T11:55:22.654Z,7.60
2023-11-21T12:00:22.738Z,7.60
2023-11-21T12:02:54.716Z,7.50
2023-11-21T12:05:24.102Z,7.50
2023-11-21T12:07:56.484Z,7.50
2023-11-21T12:10:26.182Z,7.60
2023-11-21T12:13:01.313Z,7.58
2023-11-21T12:15:32.586Z,7.60
2023-11-21T12:18:00.806Z,7.60
2023-11-21T12:38:57.133Z,7.22
2023-11-21T12:41:25.619Z,7.20
2023-11-21T12:43:54.135Z,7.18
2023-11-21T12:46:22.897Z,7.22
2023-11-21T12:48:50.947Z,7.30
2023-11-21T12:51:19.855Z,7.50
2023-11-21T12:53:49.018Z,7.60
2023-11-21T12:56:22.620Z,7.62
2023-11-21T12:58:52.902Z,7.60
2023-11-21T13:01:23.136Z,7.60
2023-11-21T13:03:52.583Z,7.60
2023-11-21T13:06:21.410Z,7.66
2023-11-21T13:08:50.171Z,7.70
2023-11-21T13:11:18.684Z,7.70
2023-11-21T13:13:47.121Z,7.70
2023-11-21T13:16:16.679Z,7.70
2023-11-21T13:18:45.242Z,7.70
2023-11-21T13:21:17.318Z,7.64
2023-11-21T13:23:47.643Z,7.70
2023-11-21T13:26:17.076Z,7.70
2023-11-21T13:28:48.683Z,7.60
2023-11-21T13:31:22.917Z,7.68
2023-11-21T13:33:57.640Z,7.60
2023-11-21T13:36:26.949Z,7.54
2023-11-21T13:38:55.278Z,7.60
2023-11-21T13:41:31.799Z,7.50
2023-11-21T13:44:19.650Z,7.52
2023-11-21T13:46:48.100Z,7.60
2023-11-21T13:49:17.696Z,7.64
2023-11-21T13:51:48.227Z,7.70
2023-11-21T13:54:16.398Z,7.70
2023-11-21T13:56:46.368Z,7.70
2023-11-21T13:59:26.972Z,7.70
2023-11-21T14:02:01.726Z,7.60
2023-11-21T14:04:55.857Z,7.58
2023-11-21T14:07:34.380Z,7.48
2023-11-21T14:10:04.917Z,7.38
2023-11-21T14:12:38.392Z,7.40
2023-11-21T14:15:11.655Z,7.30
2023-11-21T14:17:42.231Z,7.40
2023-11-21T14:20:17.549Z,7.40
2023-11-21T14:22:47.945Z,7.50
2023-11-21T14:25:18.854Z,7.40
2023-11-21T14:27:47.698Z,7.40
2023-11-21T14:30:19.543Z,7.40
2023-11-21T14:32:47.606Z,7.48
2023-11-21T14:35:17.817Z,7.50
2023-11-21T14:37:47.422Z,7.46
2023-11-21T14:40:17.240Z,7.50
2023-11-21T14:42:48.242Z,7.50
2023-11-21T14:45:21.124Z,7.50
2023-11-21T14:47:58.032Z,7.40
2023-11-21T14:50:44.115Z,7.40
2023-11-21T14:53:14.201Z,7.50
2023-11-21T14:55:42.386Z,7.50
2023-11-21T14:58:14.215Z,7.50
2023-11-21T15:00:45.981Z,7.50
2023-11-21T15:03:34.894Z,7.42
2023-11-21T15:06:22.746Z,7.50
2023-11-21T15:09:10.608Z,7.50
2023-11-21T15:11:39.961Z,7.50
2023-11-21T15:14:14.282Z,7.50
2023-11-21T15:16:46.031Z,7.50
2023-11-21T15:19:19.156Z,7.40
2023-11-21T15:21:47.310Z,7.38
2023-11-21T15:24:15.584Z,7.40
2023-11-21T15:26:43.762Z,7.40
2023-11-21T15:29:12.162Z,7.50
2023-11-21T15:31:45.180Z,7.50
2023-11-21T15:34:13.354Z,7.50
2023-11-21T15:36:41.484Z,7.48
2023-11-21T15:39:11.434Z,7.40
2023-11-21T15:41:39.813Z,7.40
2023-11-21T15:44:12.606Z,7.40
2023-11-21T15:46:42.922Z,7.40
2023-11-21T15:49:14.854Z,7.40
2023-11-21T15:51:54.071Z,7.40
2023-11-21T15:54:23.139Z,7.40
2023-11-21T15:56:53.151Z,7.40
2023-11-21T15:59:21.313Z,7.40
2023-11-21T16:01:50.231Z,7.40
2023-11-21T16:04:18.687Z,7.40
2023-11-21T16:06:48.676Z,7.40
2023-11-21T16:09:32.233Z,7.40
2023-11-21T16:12:04.055Z,7.40
2023-11-21T16:14:47.901Z,7.40
2023-11-21T16:17:18.748Z,7.40
2023-11-21T16:19:48.274Z,7.40
2023-11-21T16:22:16.520Z,7.34
2023-11-21T16:24:44.475Z,7.32
2023-11-21T16:27:12.674Z,7.40
2023-11-21T16:29:43.027Z,7.40
2023-11-21T16:32:12.061Z,7.40
2023-11-21T16:34:41.606Z,7.40
2023-11-21T16:37:12.400Z,7.40
2023-11-21T16:39:43.325Z,7.30
2023-11-21T16:42:11.858Z,7.40
2023-11-21T16:44:39.929Z,7.40
2023-11-21T16:47:08.268Z,7.40
2023-11-21T16:49:39.187Z,7.30
2023-11-21T16:52:10.458Z,7.30
2023-11-21T16:54:38.889Z,7.20
2023-11-21T16:57:07.073Z,7.20
2023-11-21T16:59:35.039Z,7.30
2023-11-21T17:02:03.422Z,7.30
2023-11-21T17:04:31.626Z,7.36
2023-11-21T17:06:59.924Z,7.40
2023-11-21T17:09:28.151Z,7.40
2023-11-21T17:11:58.172Z,7.40
2023-11-21T17:14:26.790Z,7.40
2023-11-21T17:16:55.058Z,7.40
2023-11-21T17:19:23.448Z,7.46
2023-11-21T17:21:51.578Z,7.40
2023-11-21T17:24:19.657Z,7.40
2023-11-21T17:26:48.477Z,7.40
2023-11-21T17:29:17.358Z,7.34
2023-11-21T17:31:45.994Z,7.30
2023-11-21T17:34:14.772Z,7.30
2023-11-21T17:36:43.026Z,7.30
2023-11-21T17:39:11.904Z,7.30
2023-11-21T17:41:40.098Z,7.30
2023-11-21T17:44:08.318Z,7.30
2023-11-21T17:46:37.523Z,7.22
2023-11-21T17:49:05.943Z,7.20
2023-11-21T17:51:41.222Z,7.30
2023-11-21T17:54:10.017Z,7.30
2023-11-21T17:56:38.140Z,7.38
2023-11-21T17:59:06.332Z,7.40
2023-11-21T18:01:39.592Z,7.54
2023-11-21T18:04:08.469Z,7.70
2023-11-21T18:06:36.885Z,7.80
2023-11-21T18:09:05.404Z,7.70
2023-11-21T18:11:33.537Z,7.70
2023-11-21T18:14:07.200Z,7.66
2023-11-21T18:16:35.363Z,7.62
2023-11-21T18:19:03.997Z,7.50
2023-11-21T18:21:32.006Z,7.50
2023-11-21T18:24:00.154Z,7.50
2023-11-21T18:26:29.035Z,7.50
2023-11-21T18:28:57.430Z,7.50
2023-11-21T18:31:25.408Z,7.50
2023-11-21T18:33:54.155Z,7.50
2023-11-21T18:36:22.470Z,7.38
2023-11-21T18:38:50.837Z,7.32
2023-11-21T18:41:23.622Z,7.40
2023-11-21T18:43:51.816Z,7.40
2023-11-21T18:46:20.304Z,7.40
2023-11-21T18:48:49.202Z,7.40
2023-11-21T18:51:17.346Z,7.40
2023-11-21T18:53:45.294Z,7.48
2023-11-21T18:56:22.440Z,7.60
2023-11-21T18:58:55.475Z,7.70
2023-11-21T19:01:27.514Z,7.70
2023-11-21T19:03:56.687Z,7.56
2023-11-21T19:06:26.232Z,7.40
2023-11-21T19:08:57.799Z,7.40
2023-11-21T19:11:28.606Z,7.40
2023-11-21T19:13:56.730Z,7.50
2023-11-21T19:16:25.222Z,7.50
2023-11-21T19:18:53.281Z,7.46
2023-11-21T19:21:24.018Z,7.44
2023-11-21T19:23:52.964Z,7.50
2023-11-21T19:26:20.946Z,7.50
2023-11-21T19:28:52.032Z,7.50
2023-11-21T19:31:20.754Z,7.50
2023-11-21T19:33:49.219Z,7.50
2023-11-21T19:36:17.921Z,7.50
2023-11-21T19:38:46.278Z,7.46
2023-11-21T19:41:18.238Z,7.50
2023-11-21T19:43:48.221Z,7.38
2023-11-21T19:46:16.793Z,7.40
2023-11-21T19:48:45.910Z,7.40
2023-11-21T19:51:14.005Z,7.40
2023-11-21T19:53:42.349Z,7.40
2023-11-21T19:56:11.275Z,7.40
2023-11-21T19:58:40.586Z,7.50
2023-11-21T20:01:08.917Z,7.46
2023-11-21T20:03:37.345Z,7.44
2023-11-21T20:06:07.676Z,7.50
2023-11-21T20:08:36.258Z,7.50
2023-11-21T20:11:05.556Z,7.50
2023-11-21T20:13:33.728Z,7.50
2023-11-21T20:16:01.805Z,7.40
2023-11-21T20:18:32.038Z,7.20
2023-11-21T20:21:00.578Z,7.30
2023-11-21T20:23:32.667Z,7.36
2023-11-21T20:26:02.189Z,7.40
2023-11-21T20:28:30.581Z,7.40
2023-11-21T20:30:58.920Z,7.30
2023-11-21T20:33:27.000Z,7.30
2023-11-21T20:35:55.119Z,7.30
2023-11-21T20:38:23.878Z,7.38
2023-11-21T20:40:52.024Z,7.34
2023-11-21T20:43:20.311Z,7.40
2023-11-21T20:45:48.344Z,7.30
2023-11-21T20:48:17.197Z,7.20
2023-11-21T20:50:45.620Z,7.30
2023-11-21T20:53:13.923Z,7.20
2023-11-21T20:55:42.194Z,7.26
2023-11-21T20:58:10.260Z,7.20
2023-11-21T21:00:38.242Z,7.20
2023-11-21T21:03:08.084Z,7.10
2023-11-21T21:05:37.665Z,7.10
2023-11-21T21:08:07.137Z,7.20
2023-11-21T21:10:35.485Z,7.20
2023-11-21T21:13:03.909Z,7.20
2023-11-21T21:15:31.941Z,7.20
2023-11-21T21:18:02.201Z,7.20
2023-11-21T21:20:31.632Z,7.20
2023-11-21T21:23:01.219Z,7.20
2023-11-21T21:25:29.213Z,7.16
2023-11-21T21:27:57.481Z,7.20
2023-11-21T21:30:28.937Z,7.10
2023-11-21T21:33:02.010Z,7.08
2023-11-21T21:35:30.531Z,7.00
2023-11-21T21:37:58.934Z,6.80
2023-11-21T21:40:28.618Z,6.70
2023-11-21T21:42:57.619Z,6.60
2023-11-21T21:45:26.911Z,6.50
2023-11-21T21:47:56.040Z,6.40
2023-11-21T21:50:26.843Z,6.30
2023-11-21T21:52:58.530Z,6.20
2023-11-21T21:55:30.144Z,6.20
2023-11-21T21:57:58.148Z,6.20
2023-11-21T22:00:26.433Z,6.30
2023-11-21T22:02:54.680Z,6.40
2023-11-21T22:05:23.022Z,6.40
2023-11-21T22:07:51.211Z,6.30
2023-11-21T22:10:19.442Z,6.20
2023-11-21T22:12:47.612Z,6.10
2023-11-21T22:15:15.589Z,6.00
2023-11-21T22:17:44.083Z,6.00
2023-11-21T22:20:12.488Z,6.00
2023-11-21T22:22:41.135Z,6.08
2023-11-21T22:25:09.914Z,6.10
2023-11-21T22:27:38.002Z,6.16
2023-11-21T22:30:07.086Z,6.20
2023-11-21T22:32:35.155Z,6.20
2023-11-21T22:35:04.048Z,6.20
2023-11-21T22:37:32.366Z,6.30
2023-11-21T22:40:01.015Z,6.28
2023-11-21T22:42:29.181Z,6.20
2023-11-21T22:44:57.234Z,6.20
2023-11-21T22:47:25.197Z,6.20
2023-11-21T22:49:55.221Z,6.10
2023-11-21T22:52:24.259Z,6.10
2023-11-21T22:54:52.540Z,6.00
2023-11-21T22:57:20.605Z,6.08
2023-11-21T22:59:48.536Z,6.00
2023-11-21T23:02:16.490Z,6.00
2023-11-21T23:04:45.217Z,6.10
2023-11-21T23:07:13.251Z,6.10
2023-11-21T23:09:41.191Z,6.10
2023-11-21T23:12:09.744Z,6.10
2023-11-21T23:14:38.747Z,6.10
2023-11-21T23:17:06.759Z,6.10
2023-11-21T23:19:41.859Z,6.10
2023-11-21T23:22:13.141Z,6.20
2023-11-21T23:24:42.465Z,6.10
2023-11-21T23:27:10.359Z,6.10
2023-11-21T23:29:44.479Z,6.10
2023-11-21T23:32:17.350Z,6.16
2023-11-21T23:34:46.810Z,6.18
2023-11-21T23:37:14.854Z,6.10
2023-11-21T23:39:44.529Z,6.06
2023-11-21T23:42:12.553Z,6.00
2023-11-21T23:44:41.788Z,6.10
2023-11-21T23:47:10.323Z,6.00
2023-11-21T23:49:38.402Z,6.00
2023-11-21T23:52:06.806Z,6.00
2023-11-21T23:54:35.642Z,6.00
2023-11-21T23:57:03.806Z,6.00
2023-11-21T23:59:31.781Z,5.90
